Terminal Aerodrome Forecast
Issued by NWS

Home | Current Version | Previous Version | Graphics & Text | Print | Product List | Glossary On
Versions: 1 2 3 4 5 6 7 8 9 10 11 12 13 14
000
FTUS43 KEAX 041700
TAFMKC
TAF
KMKC 041720Z 0418/0518 20007KT P6SM BKN100
     FM050000 20005KT P6SM -TSRA BKN050CB
     FM050500 19005KT P6SM VCTS SCT050CB
     FM050900 20008KT P6SM SCT100=

USA.gov is the U.S. government's official web portal to all federal, state and local government web resources and services.